Time;durP1;ratioP1;P1;durP2;ratioP2;P2;SDS_P1;SDS_P2;PMS_P1;PMS_P2;Temp;Humidity;BMP_temperature;BMP_pressure;BME280_temperature;BME280_humidity;BME280_pressure;Samples;Min_cycle;Max_cycle;Signal;HPM_P1;HPM_P2
2023/08/11 00:01:58;;;;;;;10.50;3.70;;;;;;;12.37;86.59;101092.73;105339;1260;75975;-58
2023/08/11 00:04:25;;;;;;;6.50;3.30;;;;;;;12.33;86.53;101092.53;105259;1260;82365;-58
2023/08/11 00:06:52;;;;;;;9.80;3.10;;;;;;;12.26;86.52;101093.61;105271;1261;71637;-58
2023/08/11 00:09:19;;;;;;;4.20;2.90;;;;;;;12.24;86.92;101093.70;105295;1260;69214;-58
2023/08/11 00:11:46;;;;;;;4.90;2.80;;;;;;;12.22;87.00;101095.67;105269;1261;69190;-58
2023/08/11 00:14:14;;;;;;;7.60;3.40;;;;;;;12.24;87.68;101091.25;105301;1258;75598;-58
2023/08/11 00:16:40;;;;;;;4.40;2.80;;;;;;;12.32;88.36;101087.28;105295;1258;83107;-58
2023/08/11 00:19:07;;;;;;;4.20;3.50;;;;;;;12.36;88.08;101086.80;105259;1258;73593;-58
2023/08/11 00:21:35;;;;;;;5.00;3.00;;;;;;;12.30;87.46;101084.55;105338;1259;69139;-58
2023/08/11 00:24:02;;;;;;;4.00;2.60;;;;;;;12.21;87.28;101085.38;105282;1259;69191;-58
2023/08/11 00:26:30;;;;;;;8.00;3.10;;;;;;;12.14;87.20;101083.33;105305;1257;75631;-58
2023/08/11 00:28:57;;;;;;;4.20;2.70;;;;;;;12.08;87.18;101085.46;105153;1258;83856;-59
2023/08/11 00:31:24;;;;;;;5.00;2.90;;;;;;;12.00;87.10;101085.73;105270;1260;72633;-58
2023/08/11 00:33:51;;;;;;;6.30;3.10;;;;;;;11.95;87.67;101087.64;105291;1255;69087;-58
2023/08/11 00:36:20;;;;;;;4.50;2.90;;;;;;;11.96;88.25;101087.42;105161;1260;69484;-58
2023/08/11 00:38:49;;;;;;;4.70;2.90;;;;;;;11.97;88.34;101087.02;105334;1257;74680;-58
2023/08/11 00:41:16;;;;;;;4.60;2.70;;;;;;;11.94;88.16;101084.86;105344;1256;82527;-58
2023/08/11 00:43:43;;;;;;;6.80;2.80;;;;;;;11.88;88.03;101086.96;105334;1258;73823;-59
2023/08/11 00:46:12;;;;;;;4.80;2.70;;;;;;;11.80;87.89;101091.02;105275;1257;69201;-58
2023/08/11 00:48:41;;;;;;;6.30;2.90;;;;;;;11.75;88.13;101090.84;105273;1256;69190;-58
2023/08/11 00:51:10;;;;;;;4.50;3.00;;;;;;;11.73;88.65;101097.39;105320;1260;74645;-58
2023/08/11 00:53:37;;;;;;;6.10;2.50;;;;;;;11.72;88.92;101105.46;105076;1258;82469;-58
2023/08/11 00:56:04;;;;;;;9.60;4.00;;;;;;;11.74;89.27;101110.84;105346;1258;73844;-58
2023/08/11 00:58:32;;;;;;;5.60;3.40;;;;;;;11.80;90.10;101101.36;105213;1258;69260;-58
2023/08/11 01:00:59;;;;;;;5.00;3.40;;;;;;;11.89;90.54;101096.23;105323;1258;69207;-58
2023/08/11 01:03:26;;;;;;;6.70;3.70;;;;;;;11.92;90.33;101101.04;105288;1257;75879;-58
2023/08/11 01:06:05;;;;;;;5.50;3.80;;;;;;;11.94;90.46;101100.97;105065;1260;83581;-59
2023/08/11 01:08:43;;;;;;;6.20;3.50;;;;;;;11.95;90.33;101100.92;105240;1257;73514;-59
2023/08/11 01:11:18;;;;;;;5.20;3.60;;;;;;;11.95;90.13;101099.88;105091;1260;69215;-58
2023/08/11 01:13:53;;;;;;;4.50;2.90;;;;;;;11.91;89.74;101095.80;105299;1258;69200;-58
2023/08/11 01:16:20;;;;;;;8.00;3.60;;;;;;;11.84;89.48;101093.75;105331;1258;74660;-58
2023/08/11 01:18:48;;;;;;;5.30;3.10;;;;;;;11.79;89.69;101089.52;105239;1260;83370;-58
2023/08/11 01:21:16;;;;;;;6.10;3.50;;;;;;;11.75;89.77;101095.03;105153;1257;73979;-58
2023/08/11 01:23:43;;;;;;;3.90;3.00;;;;;;;11.70;89.58;101090.98;105067;1258;71037;-58
2023/08/11 01:26:11;;;;;;;6.10;3.20;;;;;;;11.65;89.50;101087.65;105315;1260;69113;-58
2023/08/11 01:28:40;;;;;;;6.10;3.60;;;;;;;11.57;89.31;101087.54;105267;1258;74553;-58
2023/08/11 01:31:08;;;;;;;8.10;3.40;;;;;;;11.51;89.52;101088.07;105313;1259;83246;-58
2023/08/11 01:33:35;;;;;;;5.30;3.40;;;;;;;11.51;90.22;101088.96;105269;1258;73737;-58
2023/08/11 01:36:05;;;;;;;5.50;3.30;;;;;;;11.51;89.94;101087.90;105339;1257;69007;-58
2023/08/11 01:38:32;;;;;;;3.80;3.20;;;;;;;11.42;89.56;101090.79;105155;1261;69308;-58
2023/08/11 01:40:59;;;;;;;3.80;3.00;;;;;;;11.33;89.21;101091.05;105273;1260;75895;-58
2023/08/11 01:43:28;;;;;;;5.10;2.90;;;;;;;11.26;89.40;101090.55;105267;1258;83509;-58
2023/08/11 01:45:56;;;;;;;3.20;2.90;;;;;;;11.18;89.50;101089.39;105234;1256;72649;-59
2023/08/11 01:48:25;;;;;;;4.90;2.80;;;;;;;11.11;89.56;101090.78;105123;1257;69142;-58
2023/08/11 01:50:52;;;;;;;5.50;3.20;;;;;;;11.04;89.71;101090.66;105231;1260;69200;-58
2023/08/11 01:53:19;;;;;;;4.30;3.10;;;;;;;11.00;89.95;101091.47;105322;1257;73578;-58
2023/08/11 01:55:47;;;;;;;4.50;2.80;;;;;;;10.96;90.16;101093.48;105304;1259;83548;-58
2023/08/11 01:58:15;;;;;;;6.20;3.50;;;;;;;10.92;90.13;101090.80;105123;1258;73854;-58
2023/08/11 02:00:42;;;;;;;7.80;3.50;;;;;;;10.89;90.42;101094.55;105097;1262;69154;-58
2023/08/11 02:03:09;;;;;;;6.10;3.40;;;;;;;10.86;90.59;101097.10;105303;1257;69269;-58
2023/08/11 02:05:36;;;;;;;5.90;3.20;;;;;;;10.84;90.70;101096.45;105293;1257;75688;-58
2023/08/11 02:08:05;;;;;;;4.10;3.00;;;;;;;10.81;90.79;101098.96;105280;1260;83225;-59
2023/08/11 02:10:32;;;;;;;4.10;3.10;;;;;;;10.79;90.89;101097.80;105276;1257;72967;-58
2023/08/11 02:13:00;;;;;;;6.50;3.30;;;;;;;10.79;91.37;101097.81;105285;1257;68995;-58
2023/08/11 02:15:28;;;;;;;5.90;3.20;;;;;;;10.80;91.60;101097.25;105362;1259;69195;-58
2023/08/11 02:17:55;;;;;;;6.60;3.30;;;;;;;10.78;91.57;101100.98;105360;1256;75735;-58
2023/08/11 02:20:22;;;;;;;4.60;3.20;;;;;;;10.79;91.87;101099.20;105300;1257;83487;-58
2023/08/11 02:22:52;;;;;;;4.40;3.10;;;;;;;10.79;91.74;101098.35;105365;1257;73871;-59
2023/08/11 02:25:21;;;;;;;4.80;3.10;;;;;;;10.76;91.78;101096.48;105385;1261;70781;-58
2023/08/11 02:27:50;;;;;;;5.80;3.10;;;;;;;10.75;91.97;101094.75;105311;1258;69183;-58
2023/08/11 02:30:18;;;;;;;7.10;3.00;;;;;;;10.77;92.28;101096.81;105087;1260;75770;-58
2023/08/11 02:32:45;;;;;;;7.20;3.40;;;;;;;10.77;92.31;101094.70;105326;1258;83114;-58
2023/08/11 02:35:12;;;;;;;5.50;3.40;;;;;;;10.77;92.44;101090.70;105267;1259;73893;-58
2023/08/11 02:37:41;;;;;;;5.30;3.40;;;;;;;10.77;92.55;101090.35;105359;1258;69237;-58
2023/08/11 02:40:09;;;;;;;7.80;3.40;;;;;;;10.75;92.68;101091.27;105330;1258;69185;-58
2023/08/11 02:42:44;;;;;;;6.40;3.60;;;;;;;10.77;92.97;101099.08;105290;1256;75735;-58
2023/08/11 02:45:11;;;;;;;5.90;3.30;;;;;;;10.82;93.48;101103.83;105326;1257;83306;-59
2023/08/11 02:47:41;;;;;;;4.60;3.20;;;;;;;10.83;93.44;101105.20;105326;1258;73681;-58
2023/08/11 02:50:09;;;;;;;9.10;3.80;;;;;;;10.88;93.82;101106.84;105302;1256;69169;-58
2023/08/11 02:52:37;;;;;;;5.70;3.20;;;;;;;10.93;93.92;101110.88;105097;1260;69190;-58
2023/08/11 02:55:05;;;;;;;5.00;3.50;;;;;;;10.94;93.95;101109.80;105193;1258;74737;-58
2023/08/11 02:57:33;;;;;;;4.20;3.20;;;;;;;10.95;93.93;101106.30;105359;1258;83234;-58
2023/08/11 03:00:07;;;;;;;6.30;3.70;;;;;;;10.96;94.07;101106.60;105324;1256;73795;-59
2023/08/11 03:02:34;;;;;;;7.00;3.80;;;;;;;10.96;93.81;101108.89;105326;1259;69192;-58
2023/08/11 03:05:03;;;;;;;5.50;3.30;;;;;;;10.94;93.80;101112.25;105358;1258;69199;-58
2023/08/11 03:07:31;;;;;;;3.90;3.00;;;;;;;10.93;93.98;101116.81;105424;1256;75431;-58
2023/08/11 03:09:58;;;;;;;6.30;3.50;;;;;;;10.92;93.96;101112.31;105337;1259;83107;-58
2023/08/11 03:12:28;;;;;;;6.90;3.40;;;;;;;10.97;94.41;101109.58;105327;1258;72754;-58
2023/08/11 03:14:55;;;;;;;4.40;3.60;;;;;;;10.98;94.24;101108.33;105380;1258;69115;-58
2023/08/11 03:17:22;;;;;;;4.90;3.40;;;;;;;10.95;93.97;101108.92;105174;1260;69186;-58
2023/08/11 03:19:51;;;;;;;4.30;3.50;;;;;;;10.90;93.82;101110.96;105222;1257;74339;-58
2023/08/11 03:22:19;;;;;;;3.60;2.90;;;;;;;10.87;93.88;101114.20;105362;1256;82614;-58
2023/08/11 03:24:47;;;;;;;6.50;3.40;;;;;;;10.86;93.90;101116.50;105319;1255;72805;-58
2023/08/11 03:27:15;;;;;;;4.90;3.20;;;;;;;10.83;93.81;101114.48;105290;1257;69153;-58
2023/08/11 03:29:42;;;;;;;4.30;3.10;;;;;;;10.79;93.70;101115.27;105298;1259;69059;-58
2023/08/11 03:32:09;;;;;;;5.40;3.70;;;;;;;10.76;93.85;101117.45;105084;1258;74462;-59
2023/08/11 03:34:37;;;;;;;5.10;3.70;;;;;;;10.76;94.15;101117.45;105328;1258;83163;-58
2023/08/11 03:37:06;;;;;;;4.70;3.30;;;;;;;10.79;94.59;101119.15;105279;1257;72616;-58
2023/08/11 03:39:33;;;;;;;5.60;3.40;;;;;;;10.75;94.14;101117.66;105323;1255;69742;-58
2023/08/11 03:42:00;;;;;;;5.30;3.70;;;;;;;10.74;94.45;101120.48;105305;1256;69166;-58
2023/08/11 03:44:27;;;;;;;5.40;3.50;;;;;;;10.70;93.99;101120.59;105143;1257;75457;-58
2023/08/11 03:46:54;;;;;;;6.80;3.30;;;;;;;10.65;94.07;101120.88;105291;1256;82705;-58
2023/08/11 03:49:21;;;;;;;6.40;3.90;;;;;;;10.66;94.39;101121.04;105296;1257;72532;-58
2023/08/11 03:51:48;;;;;;;4.60;3.40;;;;;;;10.66;94.54;101118.06;105398;1258;69212;-58
2023/08/11 03:54:16;;;;;;;4.60;3.50;;;;;;;10.64;94.33;101114.63;105364;1259;69376;-58
2023/08/11 03:56:48;;;;;;;4.60;3.20;;;;;;;10.63;94.49;101116.08;105278;1256;75578;-58
2023/08/11 03:59:15;;;;;;;5.40;3.60;;;;;;;10.64;95.01;101117.07;105295;1256;83274;-58
2023/08/11 04:01:42;;;;;;;5.10;3.50;;;;;;;10.66;95.19;101121.03;105390;1256;73664;-58
2023/08/11 04:04:10;;;;;;;4.60;3.40;;;;;;;10.67;95.20;101122.95;105340;1256;69071;-58
2023/08/11 04:06:37;;;;;;;4.30;3.30;;;;;;;10.66;95.13;101125.77;105326;1259;69186;-58
2023/08/11 04:09:04;;;;;;;6.30;4.00;;;;;;;10.68;95.37;101125.72;105298;1256;74440;-58
2023/08/11 04:11:32;;;;;;;4.60;3.40;;;;;;;10.70;95.61;101121.98;105323;1259;82328;-58
2023/08/11 04:14:00;;;;;;;5.10;3.40;;;;;;;10.72;95.51;101125.59;105317;1256;73590;-59
2023/08/11 04:16:28;;;;;;;6.20;3.70;;;;;;;10.72;95.42;101128.59;105090;1257;69288;-58
2023/08/11 04:18:55;;;;;;;5.60;3.80;;;;;;;10.73;95.65;101130.84;105156;1258;69283;-58
2023/08/11 04:21:23;;;;;;;6.40;3.50;;;;;;;10.76;95.90;101133.02;105334;1256;74617;-58
2023/08/11 04:23:50;;;;;;;6.90;3.80;;;;;;;10.79;95.97;101132.95;105304;1256;83563;-58
2023/08/11 04:26:17;;;;;;;7.10;3.60;;;;;;;10.82;96.24;101128.67;105115;1258;72613;-58
2023/08/11 04:28:44;;;;;;;5.60;3.40;;;;;;;10.85;96.54;101126.30;105260;1258;69195;-58
2023/08/11 04:31:13;;;;;;;5.10;3.60;;;;;;;10.89;96.52;101130.58;105090;1260;69192;-58
2023/08/11 04:33:41;;;;;;;5.00;3.80;;;;;;;10.91;96.63;101134.02;105392;1257;74999;-58
2023/08/11 04:36:08;;;;;;;4.20;3.60;;;;;;;10.92;96.68;101133.12;105362;1258;83565;-59
2023/08/11 04:38:35;;;;;;;4.80;3.50;;;;;;;10.97;96.90;101133.36;105116;1256;73447;-58
2023/08/11 04:41:03;;;;;;;5.30;4.20;;;;;;;11.04;97.37;101137.88;105314;1258;69207;-59
2023/08/11 04:43:30;;;;;;;5.30;4.20;;;;;;;11.11;97.57;101134.89;105191;1258;69136;-55
2023/08/11 04:45:57;;;;;;;9.10;4.60;;;;;;;11.16;97.50;101137.20;105332;1256;75854;-54
2023/08/11 04:48:24;;;;;;;5.20;3.90;;;;;;;11.18;97.30;101140.83;105171;1260;83383;-51
2023/08/11 04:50:52;;;;;;;5.20;4.00;;;;;;;11.23;97.69;101141.21;105291;1256;73906;-57
2023/08/11 04:53:21;;;;;;;5.40;4.40;;;;;;;11.30;97.97;101143.46;105169;1257;69080;-56
2023/08/11 04:55:48;;;;;;;6.40;4.00;;;;;;;11.39;98.38;101144.08;105366;1256;69167;-56
2023/08/11 04:58:15;;;;;;;6.60;4.10;;;;;;;11.48;98.57;101146.45;105376;1255;74657;-57
2023/08/11 05:00:43;;;;;;;4.90;3.30;;;;;;;11.58;99.11;101150.34;105257;1256;81877;-56
2023/08/11 05:03:10;;;;;;;5.30;3.90;;;;;;;11.69;99.42;101158.41;105237;1259;72543;-56
2023/08/11 05:05:37;;;;;;;5.00;3.60;;;;;;;11.77;99.40;101157.48;105357;1256;69143;-56
2023/08/11 05:08:04;;;;;;;7.40;4.10;;;;;;;11.85;99.31;101161.15;105210;1260;70781;-57
2023/08/11 05:10:31;;;;;;;5.30;4.00;;;;;;;11.91;99.37;101161.84;105305;1259;74831;-57
2023/08/11 05:12:58;;;;;;;6.20;4.00;;;;;;;11.98;99.09;101164.77;105302;1259;83549;-57
2023/08/11 05:15:26;;;;;;;5.40;4.40;;;;;;;12.05;99.18;101163.86;105170;1261;72609;-55
2023/08/11 05:17:53;;;;;;;6.10;4.40;;;;;;;12.12;98.91;101166.64;105302;1256;71593;-57
2023/08/11 05:20:21;;;;;;;6.20;4.60;;;;;;;12.19;99.03;101158.85;105288;1259;69197;-57
2023/08/11 05:22:48;;;;;;;7.50;5.10;;;;;;;12.26;98.88;101161.61;105258;1256;75758;-58
2023/08/11 05:25:16;;;;;;;7.30;4.60;;;;;;;12.35;99.19;101161.87;105237;1256;83291;-57
2023/08/11 05:27:43;;;;;;;5.80;4.40;;;;;;;12.43;99.37;101159.48;105283;1256;72711;-58
2023/08/11 05:30:10;;;;;;;8.30;5.00;;;;;;;12.56;99.73;101155.57;105257;1256;69064;-58
2023/08/11 05:32:37;;;;;;;7.30;3.90;;;;;;;12.70;99.93;101151.74;105429;1258;69242;-57
2023/08/11 05:35:05;;;;;;;8.30;4.40;;;;;;;12.83;99.71;101149.75;105373;1256;75255;-58
2023/08/11 05:37:32;;;;;;;6.80;4.60;;;;;;;12.93;99.80;101150.27;105504;1258;82396;-57
2023/08/11 05:39:59;;;;;;;7.00;4.10;;;;;;;13.04;99.78;101149.36;105331;1256;73432;-57
2023/08/11 05:42:26;;;;;;;7.90;4.30;;;;;;;13.14;99.73;101154.47;105334;1258;69120;-56
2023/08/11 05:44:53;;;;;;;4.60;3.80;;;;;;;13.21;99.73;101155.95;105617;1256;69110;-57
2023/08/11 05:47:20;;;;;;;6.90;4.40;;;;;;;13.30;99.75;101157.59;105450;1256;74507;-57
2023/08/11 05:49:47;;;;;;;6.10;4.00;;;;;;;13.38;99.57;101159.94;105378;1258;82317;-57
2023/08/11 05:52:14;;;;;;;7.00;4.60;;;;;;;13.46;99.58;101160.17;105153;1258;73693;-56
2023/08/11 05:54:41;;;;;;;6.50;4.70;;;;;;;13.53;99.49;101163.40;105374;1260;69255;-57
2023/08/11 05:57:08;;;;;;;7.40;4.60;;;;;;;13.60;99.34;101161.92;105159;1260;69206;-58
2023/08/11 05:59:35;;;;;;;7.20;4.80;;;;;;;13.68;99.38;101159.52;105258;1257;74617;-58
2023/08/11 06:02:02;;;;;;;8.00;5.00;;;;;;;13.76;99.40;101155.90;105229;1258;83404;-56
2023/08/11 06:04:29;;;;;;;7.00;5.00;;;;;;;13.84;99.42;101158.58;105248;1256;72681;-57
2023/08/11 06:06:56;;;;;;;8.90;5.30;;;;;;;13.90;99.20;101156.03;105280;1258;69184;-57
2023/08/11 06:09:23;;;;;;;6.10;5.10;;;;;;;13.98;99.29;101156.82;105312;1259;69000;-58
2023/08/11 06:11:50;;;;;;;6.90;4.90;;;;;;;14.03;99.38;101157.46;105369;1256;73503;-58
2023/08/11 06:14:17;;;;;;;7.90;5.40;;;;;;;14.10;99.44;101160.02;105415;1256;83276;-58
2023/08/11 06:16:44;;;;;;;7.60;5.10;;;;;;;14.16;99.23;101157.83;105339;1258;72918;-56
2023/08/11 06:19:11;;;;;;;8.70;5.60;;;;;;;14.23;99.08;101159.34;105325;1257;69195;-58
2023/08/11 06:21:38;;;;;;;6.50;5.30;;;;;;;14.29;98.87;101158.02;105335;1256;69082;-57
2023/08/11 06:24:05;;;;;;;8.60;5.70;;;;;;;14.36;98.88;101158.78;105269;1256;75522;-58
2023/08/11 06:26:32;;;;;;;8.60;5.60;;;;;;;14.47;99.30;101159.20;105278;1258;83477;-57
2023/08/11 06:28:59;;;;;;;9.60;5.50;;;;;;;14.61;99.81;101155.00;105279;1256;73875;-59
2023/08/11 06:31:26;;;;;;;9.20;6.00;;;;;;;14.73;99.61;101157.11;105294;1256;69264;-57
2023/08/11 06:33:53;;;;;;;11.10;5.70;;;;;;;14.84;99.55;101159.28;105630;1258;69126;-55
2023/08/11 06:36:20;;;;;;;8.20;5.50;;;;;;;14.97;99.58;101167.01;105339;1256;75818;-51
2023/08/11 06:38:49;;;;;;;7.90;5.70;;;;;;;15.10;99.51;101166.42;105371;1256;83894;-55
2023/08/11 06:41:16;;;;;;;9.80;5.80;;;;;;;15.25;99.48;101167.22;106565;1255;73727;-57
2023/08/11 06:43:46;;;;;;;5.40;4.90;;;;;;;15.41;99.20;101167.19;105474;1258;69215;-59
2023/08/11 06:46:14;;;;;;;7.70;5.30;;;;;;;15.56;99.13;101171.23;105412;1255;69139;-58
2023/08/11 06:48:41;;;;;;;7.20;4.70;;;;;;;15.74;98.73;101171.52;105468;1257;75441;-58
2023/08/11 06:51:09;;;;;;;9.10;5.50;;;;;;;15.90;98.15;101177.50;105508;1258;83467;-57
2023/08/11 06:53:35;;;;;;;8.50;4.80;;;;;;;16.04;97.32;101176.99;105555;1255;73808;-58
2023/08/11 06:56:03;;;;;;;8.60;5.20;;;;;;;16.19;97.05;101176.44;105348;1258;69084;-58
2023/08/11 06:58:30;;;;;;;6.30;4.00;;;;;;;16.35;96.84;101178.34;105450;1258;69204;-58
2023/08/11 07:00:57;;;;;;;6.90;4.40;;;;;;;16.49;96.37;101178.00;105385;1260;75439;-57
2023/08/11 07:03:24;;;;;;;7.10;4.80;;;;;;;16.61;95.59;101183.92;105433;1258;83419;-58
2023/08/11 07:05:51;;;;;;;8.20;4.50;;;;;;;16.75;95.34;101185.00;105399;1256;73694;-58
2023/08/11 07:08:19;;;;;;;6.20;4.00;;;;;;;16.92;95.09;101179.60;105308;1255;69117;-58
2023/08/11 07:10:47;;;;;;;8.40;3.70;;;;;;;17.13;94.79;101184.51;105457;1255;69166;-58
2023/08/11 07:13:14;;;;;;;6.80;3.10;;;;;;;17.37;94.66;101186.60;105396;1256;75685;-58
2023/08/11 07:15:42;;;;;;;7.50;3.90;;;;;;;17.57;93.77;101186.57;105395;1258;83223;-57
2023/08/11 07:18:10;;;;;;;6.10;3.80;;;;;;;17.77;92.93;101190.13;105473;1256;73569;-59
2023/08/11 07:20:44;;;;;;;5.20;3.30;;;;;;;17.91;92.29;101191.33;105357;1258;69189;-57
2023/08/11 07:23:11;;;;;;;7.10;3.20;;;;;;;18.08;91.76;101196.41;105426;1258;69293;-57
2023/08/11 07:25:38;;;;;;;5.10;3.20;;;;;;;18.21;91.09;101197.63;105308;1256;74536;-58
2023/08/11 07:28:05;;;;;;;6.10;3.10;;;;;;;18.35;90.38;101191.89;105317;1255;82492;-58
2023/08/11 07:30:32;;;;;;;9.20;2.80;;;;;;;18.50;89.98;101195.60;105343;1256;73708;-58
2023/08/11 07:33:00;;;;;;;5.10;2.80;;;;;;;18.62;89.26;101194.90;105287;1256;69962;-58
2023/08/11 07:35:27;;;;;;;8.70;2.80;;;;;;;18.75;88.74;101197.20;105334;1257;69198;-59
2023/08/11 07:37:54;;;;;;;5.90;3.00;;;;;;;18.84;88.22;101197.38;105341;1257;74575;-58
2023/08/11 07:40:21;;;;;;;6.20;2.80;;;;;;;18.94;87.95;101198.92;105334;1258;82345;-60
2023/08/11 07:42:48;;;;;;;6.30;3.10;;;;;;;19.01;87.20;101202.92;105319;1256;72655;-58
2023/08/11 07:45:15;;;;;;;4.90;2.70;;;;;;;19.07;87.04;101203.44;105109;1256;285076;-59
2023/08/11 07:47:42;;;;;;;4.90;2.80;;;;;;;19.13;86.16;101203.43;105354;1258;69194;-58
2023/08/11 07:50:09;;;;;;;5.80;2.60;;;;;;;19.18;86.27;101203.17;105673;1255;75700;-59
2023/08/11 07:52:36;;;;;;;3.50;2.50;;;;;;;19.29;86.30;101201.60;105598;1258;82044;-59
2023/08/11 07:55:04;;;;;;;4.70;2.40;;;;;;;19.37;85.27;101204.46;105444;1256;73893;-59
2023/08/11 07:57:31;;;;;;;4.40;2.70;;;;;;;19.41;84.57;101205.45;105469;1257;69125;-59
2023/08/11 07:59:58;;;;;;;5.40;2.50;;;;;;;19.44;83.85;101207.58;105319;1256;69030;-59
2023/08/11 08:02:26;;;;;;;3.20;2.20;;;;;;;19.47;83.47;101208.86;105471;1256;75752;-59
2023/08/11 08:04:53;;;;;;;4.80;2.90;;;;;;;19.53;83.54;101207.77;105390;1258;83109;-59
2023/08/11 08:07:36;;;;;;;7.70;2.80;;;;;;;19.65;83.54;101203.86;105452;1256;71313;-58
2023/08/11 08:10:08;;;;;;;4.70;2.50;;;;;;;19.75;83.10;101206.20;105581;1256;69086;-58
2023/08/11 08:12:39;;;;;;;11.30;2.80;;;;;;;19.83;82.54;101206.45;105405;1258;69252;-59
2023/08/11 08:15:08;;;;;;;3.60;2.10;;;;;;;19.92;81.53;101204.44;105418;1258;74568;-59
2023/08/11 08:17:39;;;;;;;4.40;1.90;;;;;;;19.99;80.70;101205.63;105459;1258;83311;-59
2023/08/11 08:20:10;;;;;;;3.60;1.80;;;;;;;20.08;80.37;101205.05;105452;1258;74261;-60
2023/08/11 08:22:36;;;;;;;4.00;2.00;;;;;;;20.13;79.49;101207.36;105258;1256;69129;-59
2023/08/11 08:25:07;;;;;;;3.70;2.00;;;;;;;20.19;79.20;101208.27;105370;1259;69084;-59
2023/08/11 08:27:36;;;;;;;4.10;2.10;;;;;;;20.25;78.79;101207.30;105442;1255;75845;-58
2023/08/11 08:30:04;;;;;;;5.40;2.50;;;;;;;20.33;78.18;101210.53;105397;1257;83860;-59
2023/08/11 08:32:32;;;;;;;4.40;1.80;;;;;;;20.41;77.76;101210.54;105509;1258;73834;-60
2023/08/11 08:34:59;;;;;;;3.40;2.00;;;;;;;20.43;76.92;101207.02;105326;1256;69123;-57
2023/08/11 08:37:28;;;;;;;4.30;2.30;;;;;;;20.49;76.71;101207.71;105254;1260;69188;-58
2023/08/11 08:39:55;;;;;;;3.10;1.90;;;;;;;20.57;76.55;101207.93;105449;1258;75967;-57
2023/08/11 08:42:23;;;;;;;3.50;1.80;;;;;;;20.68;76.40;101208.26;105379;1256;82408;-57
2023/08/11 08:44:51;;;;;;;2.80;1.80;;;;;;;20.84;76.12;101212.71;105393;1255;72541;-57
2023/08/11 08:47:20;;;;;;;4.30;1.90;;;;;;;20.98;75.28;101212.30;105328;1256;69187;-57
2023/08/11 08:49:48;;;;;;;3.70;2.20;;;;;;;21.02;74.17;101214.52;105411;1255;69114;-55
2023/08/11 08:52:15;;;;;;;7.30;1.90;;;;;;;21.08;73.89;101210.55;105320;1258;75553;-57
2023/08/11 08:54:44;;;;;;;4.20;2.60;;;;;;;21.14;73.29;101207.80;105453;1256;81755;-55
2023/08/11 08:57:11;;;;;;;7.40;2.20;;;;;;;21.23;72.93;101206.15;105370;1256;73940;-55
2023/08/11 08:59:43;;;;;;;7.40;2.20;;;;;;;21.33;72.38;101205.94;105331;1258;69248;-56
2023/08/11 09:02:10;;;;;;;7.10;2.40;;;;;;;21.42;71.79;101203.23;105340;1255;69034;-52
2023/08/11 09:04:40;;;;;;;4.60;2.50;;;;;;;21.51;71.33;101206.36;105572;1258;75942;-55
2023/08/11 09:07:07;;;;;;;5.90;1.90;;;;;;;21.61;70.47;101210.43;105371;1256;83826;-58
2023/08/11 09:09:35;;;;;;;3.50;1.60;;;;;;;21.68;69.78;101212.27;105398;1256;73701;-56
2023/08/11 09:12:03;;;;;;;4.20;1.80;;;;;;;21.75;69.26;101209.09;105358;1256;69253;-55
2023/08/11 09:14:30;;;;;;;2.50;1.80;;;;;;;21.84;68.74;101211.29;105315;1258;69149;-56
2023/08/11 09:16:58;;;;;;;4.50;1.80;;;;;;;21.94;68.63;101213.25;105508;1257;74691;-55
2023/08/11 09:19:25;;;;;;;5.90;2.30;;;;;;;22.11;68.51;101213.47;105362;1257;82390;-56
2023/08/11 09:25:36;;;;;;;3.10;1.70;;;;;;;22.42;66.70;101214.04;105336;1255;69229;-58
2023/08/11 09:28:04;;;;;;;6.90;3.80;;;;;;;22.56;66.63;101205.91;105320;1258;69178;-59
2023/08/11 09:30:34;;;;;;;8.00;2.20;;;;;;;22.72;66.06;101209.52;105284;1256;75422;-59
2023/08/11 09:33:03;;;;;;;5.40;2.30;;;;;;;22.85;65.23;101203.34;105249;1258;81669;-59
2023/08/11 09:35:30;;;;;;;5.40;2.10;;;;;;;22.95;64.40;101202.61;105292;1259;73981;-59
2023/08/11 09:37:57;;;;;;;7.00;3.60;;;;;;;23.06;64.08;101202.27;105250;1256;69061;-58
2023/08/11 09:40:24;;;;;;;4.90;2.90;;;;;;;23.22;64.22;101203.40;105283;1256;69202;-59
2023/08/11 09:42:56;;;;;;;3.30;2.20;;;;;;;23.40;63.88;101205.05;105340;1256;75686;-59
2023/08/11 09:45:23;;;;;;;4.50;1.80;;;;;;;23.57;63.09;101205.83;105388;1256;83654;-59
2023/08/11 09:47:50;;;;;;;4.90;3.10;;;;;;;23.73;62.42;101204.06;105313;1256;73622;-59
2023/08/11 09:50:18;;;;;;;5.00;2.60;;;;;;;23.88;61.48;101199.30;105302;1258;69229;-58
2023/08/11 09:52:45;;;;;;;5.20;3.10;;;;;;;23.98;61.12;101199.59;105250;1256;69163;-59
2023/08/11 09:55:13;;;;;;;5.90;3.20;;;;;;;24.09;60.56;101201.67;105209;1259;74687;-59
2023/08/11 09:57:41;;;;;;;6.60;3.50;;;;;;;24.23;60.22;101202.87;105313;1258;83398;-59
2023/08/11 10:00:12;;;;;;;4.50;2.40;;;;;;;24.40;59.42;101201.29;105258;1256;73500;-59
2023/08/11 10:02:43;;;;;;;4.10;1.80;;;;;;;24.59;58.95;101204.56;105136;1256;69121;-57
2023/08/11 10:05:11;;;;;;;3.70;2.10;;;;;;;24.79;58.22;101203.05;105177;1256;69142;-59
2023/08/11 10:07:40;;;;;;;4.30;2.50;;;;;;;24.96;58.03;101195.56;105075;1256;75703;-58
2023/08/11 10:10:18;;;;;;;5.00;3.30;;;;;;;25.16;57.68;101193.12;105177;1260;83381;-59
2023/08/11 10:12:48;;;;;;;3.00;1.80;;;;;;;25.43;57.01;101195.63;105200;1256;74054;-57
2023/08/11 10:15:20;;;;;;;3.60;2.10;;;;;;;25.76;56.45;101195.62;105237;1257;69223;-58
2023/08/11 10:17:48;;;;;;;4.90;1.90;;;;;;;26.17;56.03;101195.41;105347;1258;69305;-57
2023/08/11 10:20:16;;;;;;;2.30;1.50;;;;;;;26.51;55.35;101193.60;105250;1258;74626;-57
2023/08/11 10:22:42;;;;;;;2.90;1.50;;;;;;;26.65;54.85;101195.00;105276;1258;83380;-58
2023/08/11 10:25:10;;;;;;;3.60;1.40;;;;;;;26.49;53.66;101195.54;105239;1258;72710;-57
2023/08/11 10:27:39;;;;;;;2.80;1.70;;;;;;;26.23;53.00;101195.20;105295;1257;69106;-57
2023/08/11 10:30:07;;;;;;;2.90;1.80;;;;;;;26.05;52.77;101195.78;105203;1258;69099;-58
2023/08/11 10:32:35;;;;;;;2.60;1.70;;;;;;;25.86;52.27;101192.30;105182;1261;75654;-58
2023/08/11 10:35:06;;;;;;;3.00;1.80;;;;;;;25.61;52.44;101191.59;105268;1259;83698;-58
2023/08/11 10:37:35;;;;;;;2.30;1.60;;;;;;;25.47;52.52;101189.06;105246;1255;73577;-58
2023/08/11 10:40:09;;;;;;;2.00;1.30;;;;;;;25.65;52.93;101184.02;105342;1258;69077;-58
2023/08/11 10:42:37;;;;;;;5.30;1.60;;;;;;;25.79;52.81;101181.67;105358;1257;69102;-58
2023/08/11 10:45:09;;;;;;;4.60;1.50;;;;;;;25.74;52.21;101185.60;105465;1258;74574;-58
2023/08/11 10:47:53;;;;;;;5.50;1.80;;;;;;;25.72;51.94;101185.79;105240;1256;82222;-57
2023/08/11 10:50:21;;;;;;;4.70;1.70;;;;;;;26.00;51.44;101182.08;105191;1256;72885;-58
2023/08/11 10:53:05;;;;;;;2.50;1.70;;;;;;;26.36;51.65;101177.20;105181;1258;69159;-58
2023/08/11 10:55:36;;;;;;;2.30;1.40;;;;;;;26.55;51.31;101183.34;105280;1257;69290;-58
2023/08/11 10:58:13;;;;;;;2.40;1.50;;;;;;;26.35;50.46;101185.00;105446;1256;75664;-58
2023/08/11 11:00:41;;;;;;;2.50;1.60;;;;;;;26.17;50.00;101187.73;105259;1258;83592;-59
2023/08/11 11:03:09;;;;;;;3.10;1.60;;;;;;;26.05;49.95;101192.50;105420;1256;72590;-58
2023/08/11 11:05:40;;;;;;;3.10;1.80;;;;;;;25.96;50.14;101188.83;105233;1258;69080;-58
2023/08/11 11:08:07;;;;;;;4.60;1.40;;;;;;;25.89;49.52;101188.02;105187;1258;69190;-58
2023/08/11 11:10:34;;;;;;;2.80;1.60;;;;;;;25.82;49.32;101185.75;105213;1254;75694;-58
2023/08/11 11:13:15;;;;;;;2.30;1.60;;;;;;;25.84;48.90;101186.02;105114;1258;83462;-58
2023/08/11 11:15:43;;;;;;;2.90;1.40;;;;;;;25.96;48.82;101189.23;105152;1258;73477;-59
2023/08/11 11:18:10;;;;;;;4.00;1.60;;;;;;;25.98;48.43;101188.33;105265;1257;69203;-61
2023/08/11 11:20:37;;;;;;;1.90;1.50;;;;;;;25.95;48.69;101186.66;105334;1254;69178;-59
2023/08/11 11:23:05;;;;;;;4.60;1.90;;;;;;;25.94;49.10;101186.00;105297;1256;75608;-60
2023/08/11 11:25:32;;;;;;;1.90;1.40;;;;;;;25.83;49.23;101185.19;105314;1256;83150;-58